sensor_id;sensor_type;location;lat;lon;timestamp;P1;durP1;ratioP1;P2;durP2;ratioP2
19183;SDS011;9724;51.194;6.856;2023-10-19T00:00:20;8.67;;;6.43;;
19183;SDS011;9724;51.194;6.856;2023-10-19T00:02:48;10.57;;;6.80;;
19183;SDS011;9724;51.194;6.856;2023-10-19T00:05:17;10.03;;;6.63;;
19183;SDS011;9724;51.194;6.856;2023-10-19T00:07:43;8.17;;;6.70;;
19183;SDS011;9724;51.194;6.856;2023-10-19T00:10:10;8.77;;;6.73;;
19183;SDS011;9724;51.194;6.856;2023-10-19T00:12:40;8.03;;;6.70;;
19183;SDS011;9724;51.194;6.856;2023-10-19T00:15:07;9.13;;;6.53;;
19183;SDS011;9724;51.194;6.856;2023-10-19T00:17:36;12.07;;;7.93;;
19183;SDS011;9724;51.194;6.856;2023-10-19T00:20:05;10.70;;;7.53;;
19183;SDS011;9724;51.194;6.856;2023-10-19T00:22:54;9.80;;;7.10;;
19183;SDS011;9724;51.194;6.856;2023-10-19T00:25:22;11.30;;;6.80;;
19183;SDS011;9724;51.194;6.856;2023-10-19T00:27:49;14.20;;;7.47;;
19183;SDS011;9724;51.194;6.856;2023-10-19T00:30:16;10.03;;;7.47;;
19183;SDS011;9724;51.194;6.856;2023-10-19T00:32:49;11.40;;;7.47;;
19183;SDS011;9724;51.194;6.856;2023-10-19T00:35:18;12.27;;;7.70;;
19183;SDS011;9724;51.194;6.856;2023-10-19T00:37:54;8.77;;;6.70;;
19183;SDS011;9724;51.194;6.856;2023-10-19T00:40:23;8.97;;;7.13;;
19183;SDS011;9724;51.194;6.856;2023-10-19T00:43:02;11.20;;;7.23;;
19183;SDS011;9724;51.194;6.856;2023-10-19T00:45:31;12.43;;;7.30;;
19183;SDS011;9724;51.194;6.856;2023-10-19T00:48:04;13.30;;;7.87;;
19183;SDS011;9724;51.194;6.856;2023-10-19T00:50:33;9.87;;;7.77;;
19183;SDS011;9724;51.194;6.856;2023-10-19T00:53:00;13.50;;;7.53;;
19183;SDS011;9724;51.194;6.856;2023-10-19T00:55:29;10.63;;;8.07;;
19183;SDS011;9724;51.194;6.856;2023-10-19T00:57:59;11.83;;;7.90;;
19183;SDS011;9724;51.194;6.856;2023-10-19T01:00:32;14.83;;;8.10;;
19183;SDS011;9724;51.194;6.856;2023-10-19T01:03:00;11.80;;;8.50;;
19183;SDS011;9724;51.194;6.856;2023-10-19T01:05:31;10.37;;;8.23;;
19183;SDS011;9724;51.194;6.856;2023-10-19T01:08:01;9.90;;;7.33;;
19183;SDS011;9724;51.194;6.856;2023-10-19T01:10:30;12.17;;;8.13;;
19183;SDS011;9724;51.194;6.856;2023-10-19T01:12:58;17.83;;;9.00;;
19183;SDS011;9724;51.194;6.856;2023-10-19T01:15:25;11.80;;;9.07;;
19183;SDS011;9724;51.194;6.856;2023-10-19T01:17:56;13.23;;;7.97;;
19183;SDS011;9724;51.194;6.856;2023-10-19T01:20:23;15.63;;;9.10;;
19183;SDS011;9724;51.194;6.856;2023-10-19T01:23:09;11.77;;;8.50;;
19183;SDS011;9724;51.194;6.856;2023-10-19T01:25:46;11.47;;;8.80;;
19183;SDS011;9724;51.194;6.856;2023-10-19T01:28:18;11.43;;;8.80;;
19183;SDS011;9724;51.194;6.856;2023-10-19T01:30:44;11.90;;;8.60;;
19183;SDS011;9724;51.194;6.856;2023-10-19T01:33:11;12.40;;;8.93;;
19183;SDS011;9724;51.194;6.856;2023-10-19T01:35:39;14.23;;;9.43;;
19183;SDS011;9724;51.194;6.856;2023-10-19T01:38:21;14.40;;;9.20;;
19183;SDS011;9724;51.194;6.856;2023-10-19T01:40:48;13.50;;;9.50;;
19183;SDS011;9724;51.194;6.856;2023-10-19T01:43:16;16.10;;;9.30;;
19183;SDS011;9724;51.194;6.856;2023-10-19T01:45:46;15.40;;;9.67;;
19183;SDS011;9724;51.194;6.856;2023-10-19T01:48:14;11.93;;;8.87;;
19183;SDS011;9724;51.194;6.856;2023-10-19T01:50:41;12.87;;;9.13;;
19183;SDS011;9724;51.194;6.856;2023-10-19T01:53:07;16.00;;;9.63;;
19183;SDS011;9724;51.194;6.856;2023-10-19T01:55:42;14.93;;;9.37;;
19183;SDS011;9724;51.194;6.856;2023-10-19T01:58:10;11.67;;;9.03;;
19183;SDS011;9724;51.194;6.856;2023-10-19T02:00:36;13.50;;;8.50;;
19183;SDS011;9724;51.194;6.856;2023-10-19T02:03:06;11.37;;;8.53;;
19183;SDS011;9724;51.194;6.856;2023-10-19T02:05:33;14.77;;;8.67;;
19183;SDS011;9724;51.194;6.856;2023-10-19T02:08:05;13.37;;;8.77;;
19183;SDS011;9724;51.194;6.856;2023-10-19T02:10:33;12.00;;;8.70;;
19183;SDS011;9724;51.194;6.856;2023-10-19T02:13:00;12.07;;;9.50;;
19183;SDS011;9724;51.194;6.856;2023-10-19T02:15:32;16.90;;;9.40;;
19183;SDS011;9724;51.194;6.856;2023-10-19T02:18:00;13.50;;;8.77;;
19183;SDS011;9724;51.194;6.856;2023-10-19T02:20:27;11.83;;;9.07;;
19183;SDS011;9724;51.194;6.856;2023-10-19T02:23:07;15.97;;;9.13;;
19183;SDS011;9724;51.194;6.856;2023-10-19T02:25:33;13.47;;;8.77;;
19183;SDS011;9724;51.194;6.856;2023-10-19T02:28:03;13.97;;;9.10;;
19183;SDS011;9724;51.194;6.856;2023-10-19T02:30:32;12.70;;;9.27;;
19183;SDS011;9724;51.194;6.856;2023-10-19T02:32:59;14.70;;;9.67;;
19183;SDS011;9724;51.194;6.856;2023-10-19T02:35:26;13.73;;;9.20;;
19183;SDS011;9724;51.194;6.856;2023-10-19T02:37:53;12.37;;;8.80;;
19183;SDS011;9724;51.194;6.856;2023-10-19T02:40:19;11.17;;;8.80;;
19183;SDS011;9724;51.194;6.856;2023-10-19T02:42:48;13.83;;;9.23;;
19183;SDS011;9724;51.194;6.856;2023-10-19T02:45:17;13.20;;;8.00;;
19183;SDS011;9724;51.194;6.856;2023-10-19T02:47:44;9.93;;;7.80;;
19183;SDS011;9724;51.194;6.856;2023-10-19T02:50:10;12.87;;;8.83;;
19183;SDS011;9724;51.194;6.856;2023-10-19T02:52:40;12.37;;;8.83;;
19183;SDS011;9724;51.194;6.856;2023-10-19T02:55:07;14.00;;;8.83;;
19183;SDS011;9724;51.194;6.856;2023-10-19T02:57:35;12.73;;;9.20;;
19183;SDS011;9724;51.194;6.856;2023-10-19T03:00:04;9.93;;;7.93;;
19183;SDS011;9724;51.194;6.856;2023-10-19T03:02:38;12.83;;;8.37;;
19183;SDS011;9724;51.194;6.856;2023-10-19T03:05:04;12.60;;;8.43;;
19183;SDS011;9724;51.194;6.856;2023-10-19T03:07:39;9.07;;;7.97;;
19183;SDS011;9724;51.194;6.856;2023-10-19T03:10:08;10.73;;;8.47;;
19183;SDS011;9724;51.194;6.856;2023-10-19T03:12:48;10.33;;;7.40;;
19183;SDS011;9724;51.194;6.856;2023-10-19T03:15:15;9.73;;;7.73;;
19183;SDS011;9724;51.194;6.856;2023-10-19T03:17:43;11.97;;;8.57;;
19183;SDS011;9724;51.194;6.856;2023-10-19T03:20:11;12.67;;;8.60;;
19183;SDS011;9724;51.194;6.856;2023-10-19T03:22:38;10.73;;;7.37;;
19183;SDS011;9724;51.194;6.856;2023-10-19T03:25:04;7.77;;;6.83;;
19183;SDS011;9724;51.194;6.856;2023-10-19T03:28:00;9.47;;;7.17;;
19183;SDS011;9724;51.194;6.856;2023-10-19T03:30:35;11.10;;;6.80;;
19183;SDS011;9724;51.194;6.856;2023-10-19T03:33:06;9.70;;;7.07;;
19183;SDS011;9724;51.194;6.856;2023-10-19T03:35:35;11.23;;;7.50;;
19183;SDS011;9724;51.194;6.856;2023-10-19T03:38:04;10.13;;;7.30;;
19183;SDS011;9724;51.194;6.856;2023-10-19T03:40:40;9.67;;;6.77;;
19183;SDS011;9724;51.194;6.856;2023-10-19T03:43:07;7.87;;;6.70;;
19183;SDS011;9724;51.194;6.856;2023-10-19T03:45:43;11.17;;;7.07;;
19183;SDS011;9724;51.194;6.856;2023-10-19T03:48:18;10.87;;;6.77;;
19183;SDS011;9724;51.194;6.856;2023-10-19T03:50:52;10.43;;;7.53;;
19183;SDS011;9724;51.194;6.856;2023-10-19T03:53:21;8.50;;;6.80;;
19183;SDS011;9724;51.194;6.856;2023-10-19T03:55:48;10.90;;;7.20;;
19183;SDS011;9724;51.194;6.856;2023-10-19T03:58:16;8.67;;;6.80;;
19183;SDS011;9724;51.194;6.856;2023-10-19T04:00:46;8.80;;;6.27;;
19183;SDS011;9724;51.194;6.856;2023-10-19T04:03:14;9.57;;;6.03;;
19183;SDS011;9724;51.194;6.856;2023-10-19T04:05:42;10.30;;;6.60;;
19183;SDS011;9724;51.194;6.856;2023-10-19T04:08:12;8.30;;;6.13;;
19183;SDS011;9724;51.194;6.856;2023-10-19T04:10:40;9.43;;;6.53;;
19183;SDS011;9724;51.194;6.856;2023-10-19T04:13:11;10.03;;;6.20;;
19183;SDS011;9724;51.194;6.856;2023-10-19T04:15:42;10.57;;;6.50;;
19183;SDS011;9724;51.194;6.856;2023-10-19T04:18:09;9.50;;;5.70;;
19183;SDS011;9724;51.194;6.856;2023-10-19T04:20:36;6.43;;;5.83;;
19183;SDS011;9724;51.194;6.856;2023-10-19T04:23:21;8.13;;;5.57;;
19183;SDS011;9724;51.194;6.856;2023-10-19T04:25:53;9.00;;;5.90;;
19183;SDS011;9724;51.194;6.856;2023-10-19T04:28:22;8.03;;;5.60;;
19183;SDS011;9724;51.194;6.856;2023-10-19T04:30:57;8.03;;;5.70;;
19183;SDS011;9724;51.194;6.856;2023-10-19T04:33:29;7.13;;;5.17;;
19183;SDS011;9724;51.194;6.856;2023-10-19T04:35:56;6.50;;;5.07;;
19183;SDS011;9724;51.194;6.856;2023-10-19T04:38:26;10.13;;;5.70;;
19183;SDS011;9724;51.194;6.856;2023-10-19T04:40:52;8.07;;;5.70;;
19183;SDS011;9724;51.194;6.856;2023-10-19T04:43:19;9.80;;;6.37;;
19183;SDS011;9724;51.194;6.856;2023-10-19T04:45:47;8.20;;;6.00;;
19183;SDS011;9724;51.194;6.856;2023-10-19T04:48:13;8.53;;;5.80;;
19183;SDS011;9724;51.194;6.856;2023-10-19T04:50:40;9.83;;;5.70;;
19183;SDS011;9724;51.194;6.856;2023-10-19T04:53:07;7.67;;;5.30;;
19183;SDS011;9724;51.194;6.856;2023-10-19T04:55:35;8.43;;;5.60;;
19183;SDS011;9724;51.194;6.856;2023-10-19T04:58:02;10.67;;;5.77;;
19183;SDS011;9724;51.194;6.856;2023-10-19T05:00:31;9.83;;;5.90;;
19183;SDS011;9724;51.194;6.856;2023-10-19T05:02:58;11.50;;;5.60;;
19183;SDS011;9724;51.194;6.856;2023-10-19T05:05:26;7.50;;;5.53;;
19183;SDS011;9724;51.194;6.856;2023-10-19T05:07:53;9.20;;;5.50;;
19183;SDS011;9724;51.194;6.856;2023-10-19T05:10:19;10.57;;;5.40;;
19183;SDS011;9724;51.194;6.856;2023-10-19T05:12:47;8.60;;;5.50;;
19183;SDS011;9724;51.194;6.856;2023-10-19T05:15:13;7.97;;;5.57;;
19183;SDS011;9724;51.194;6.856;2023-10-19T05:17:41;8.63;;;5.40;;
19183;SDS011;9724;51.194;6.856;2023-10-19T05:20:08;9.40;;;5.30;;
19183;SDS011;9724;51.194;6.856;2023-10-19T05:22:36;6.67;;;5.07;;
19183;SDS011;9724;51.194;6.856;2023-10-19T05:25:03;8.80;;;5.50;;
19183;SDS011;9724;51.194;6.856;2023-10-19T05:27:33;8.43;;;5.30;;
19183;SDS011;9724;51.194;6.856;2023-10-19T05:30:01;6.80;;;5.07;;
19183;SDS011;9724;51.194;6.856;2023-10-19T05:32:28;7.93;;;5.30;;
19183;SDS011;9724;51.194;6.856;2023-10-19T05:34:55;8.03;;;5.50;;
19183;SDS011;9724;51.194;6.856;2023-10-19T05:37:25;6.20;;;5.30;;
19183;SDS011;9724;51.194;6.856;2023-10-19T05:39:54;7.43;;;5.70;;
19183;SDS011;9724;51.194;6.856;2023-10-19T05:42:21;6.60;;;5.53;;
19183;SDS011;9724;51.194;6.856;2023-10-19T05:44:47;7.67;;;5.80;;
19183;SDS011;9724;51.194;6.856;2023-10-19T05:47:14;9.37;;;5.90;;
19183;SDS011;9724;51.194;6.856;2023-10-19T05:49:41;9.77;;;6.10;;
19183;SDS011;9724;51.194;6.856;2023-10-19T05:52:07;9.47;;;5.93;;
19183;SDS011;9724;51.194;6.856;2023-10-19T05:54:34;10.03;;;5.63;;
19183;SDS011;9724;51.194;6.856;2023-10-19T05:57:01;10.77;;;5.97;;
19183;SDS011;9724;51.194;6.856;2023-10-19T05:59:27;8.90;;;5.30;;
19183;SDS011;9724;51.194;6.856;2023-10-19T06:01:56;7.97;;;5.60;;
19183;SDS011;9724;51.194;6.856;2023-10-19T06:04:23;10.27;;;5.40;;
19183;SDS011;9724;51.194;6.856;2023-10-19T06:06:49;9.77;;;5.77;;
19183;SDS011;9724;51.194;6.856;2023-10-19T06:09:17;9.50;;;6.00;;
19183;SDS011;9724;51.194;6.856;2023-10-19T06:11:45;8.63;;;5.57;;
19183;SDS011;9724;51.194;6.856;2023-10-19T06:14:11;10.23;;;5.50;;
19183;SDS011;9724;51.194;6.856;2023-10-19T06:16:38;8.97;;;5.53;;
19183;SDS011;9724;51.194;6.856;2023-10-19T06:19:04;8.63;;;5.90;;
19183;SDS011;9724;51.194;6.856;2023-10-19T06:21:31;8.87;;;5.53;;
19183;SDS011;9724;51.194;6.856;2023-10-19T06:23:59;12.00;;;6.23;;
19183;SDS011;9724;51.194;6.856;2023-10-19T06:26:25;8.40;;;5.47;;
19183;SDS011;9724;51.194;6.856;2023-10-19T06:28:52;10.77;;;5.50;;
19183;SDS011;9724;51.194;6.856;2023-10-19T06:31:23;7.63;;;5.47;;
19183;SDS011;9724;51.194;6.856;2023-10-19T06:33:49;11.23;;;5.73;;
19183;SDS011;9724;51.194;6.856;2023-10-19T06:36:16;15.40;;;5.87;;
19183;SDS011;9724;51.194;6.856;2023-10-19T06:38:44;10.40;;;5.87;;
19183;SDS011;9724;51.194;6.856;2023-10-19T06:41:10;8.67;;;5.40;;
19183;SDS011;9724;51.194;6.856;2023-10-19T06:43:37;9.97;;;5.20;;
19183;SDS011;9724;51.194;6.856;2023-10-19T06:46:03;15.07;;;5.43;;
19183;SDS011;9724;51.194;6.856;2023-10-19T06:48:30;8.70;;;5.17;;
19183;SDS011;9724;51.194;6.856;2023-10-19T06:50:56;10.90;;;6.33;;
19183;SDS011;9724;51.194;6.856;2023-10-19T06:53:22;12.77;;;5.50;;
19183;SDS011;9724;51.194;6.856;2023-10-19T06:55:50;7.23;;;5.77;;
19183;SDS011;9724;51.194;6.856;2023-10-19T06:58:16;10.70;;;5.53;;
19183;SDS011;9724;51.194;6.856;2023-10-19T07:00:45;9.67;;;6.00;;
19183;SDS011;9724;51.194;6.856;2023-10-19T07:03:21;9.07;;;5.70;;
19183;SDS011;9724;51.194;6.856;2023-10-19T07:05:48;8.50;;;5.57;;
19183;SDS011;9724;51.194;6.856;2023-10-19T07:08:15;10.03;;;5.50;;
19183;SDS011;9724;51.194;6.856;2023-10-19T07:10:41;11.70;;;6.17;;
19183;SDS011;9724;51.194;6.856;2023-10-19T07:13:09;11.80;;;5.70;;
19183;SDS011;9724;51.194;6.856;2023-10-19T07:15:35;8.97;;;5.37;;
19183;SDS011;9724;51.194;6.856;2023-10-19T07:18:02;15.00;;;5.90;;
19183;SDS011;9724;51.194;6.856;2023-10-19T07:20:28;10.20;;;6.37;;
19183;SDS011;9724;51.194;6.856;2023-10-19T07:22:58;10.10;;;6.20;;
19183;SDS011;9724;51.194;6.856;2023-10-19T07:25:28;10.80;;;6.53;;
19183;SDS011;9724;51.194;6.856;2023-10-19T07:27:56;10.37;;;5.87;;
19183;SDS011;9724;51.194;6.856;2023-10-19T07:30:26;10.37;;;6.33;;
19183;SDS011;9724;51.194;6.856;2023-10-19T07:32:52;10.47;;;6.37;;
19183;SDS011;9724;51.194;6.856;2023-10-19T07:35:21;9.43;;;6.40;;
19183;SDS011;9724;51.194;6.856;2023-10-19T07:37:48;10.63;;;6.27;;
19183;SDS011;9724;51.194;6.856;2023-10-19T07:40:15;7.90;;;6.63;;
19183;SDS011;9724;51.194;6.856;2023-10-19T07:42:43;12.97;;;6.10;;
19183;SDS011;9724;51.194;6.856;2023-10-19T07:45:09;9.97;;;6.57;;
19183;SDS011;9724;51.194;6.856;2023-10-19T07:47:38;10.33;;;6.80;;
19183;SDS011;9724;51.194;6.856;2023-10-19T07:50:06;11.23;;;6.50;;
19183;SDS011;9724;51.194;6.856;2023-10-19T07:52:37;9.73;;;6.73;;
19183;SDS011;9724;51.194;6.856;2023-10-19T07:55:05;9.13;;;6.17;;
19183;SDS011;9724;51.194;6.856;2023-10-19T07:57:32;11.97;;;6.50;;
19183;SDS011;9724;51.194;6.856;2023-10-19T07:59:59;9.67;;;5.93;;
19183;SDS011;9724;51.194;6.856;2023-10-19T08:02:27;9.03;;;6.03;;
19183;SDS011;9724;51.194;6.856;2023-10-19T08:04:55;11.93;;;6.13;;
19183;SDS011;9724;51.194;6.856;2023-10-19T08:07:21;7.13;;;5.23;;
19183;SDS011;9724;51.194;6.856;2023-10-19T08:09:48;9.10;;;5.97;;
19183;SDS011;9724;51.194;6.856;2023-10-19T08:12:15;10.20;;;6.00;;
19183;SDS011;9724;51.194;6.856;2023-10-19T08:14:42;9.80;;;6.77;;
19183;SDS011;9724;51.194;6.856;2023-10-19T08:17:08;13.90;;;6.43;;
19183;SDS011;9724;51.194;6.856;2023-10-19T08:19:35;9.90;;;6.30;;
19183;SDS011;9724;51.194;6.856;2023-10-19T08:22:02;9.50;;;6.53;;
19183;SDS011;9724;51.194;6.856;2023-10-19T08:24:30;16.13;;;6.70;;
19183;SDS011;9724;51.194;6.856;2023-10-19T08:27:00;8.80;;;6.20;;
19183;SDS011;9724;51.194;6.856;2023-10-19T08:29:26;14.70;;;6.73;;
19183;SDS011;9724;51.194;6.856;2023-10-19T08:31:54;12.40;;;6.67;;
19183;SDS011;9724;51.194;6.856;2023-10-19T08:34:22;11.93;;;5.83;;
19183;SDS011;9724;51.194;6.856;2023-10-19T08:36:51;10.27;;;6.23;;
19183;SDS011;9724;51.194;6.856;2023-10-19T08:39:18;11.70;;;6.37;;
19183;SDS011;9724;51.194;6.856;2023-10-19T08:41:44;9.83;;;6.10;;
19183;SDS011;9724;51.194;6.856;2023-10-19T08:44:16;14.80;;;5.87;;
19183;SDS011;9724;51.194;6.856;2023-10-19T08:46:43;15.07;;;6.20;;
19183;SDS011;9724;51.194;6.856;2023-10-19T08:49:10;9.90;;;5.80;;
19183;SDS011;9724;51.194;6.856;2023-10-19T08:51:38;12.23;;;6.30;;
19183;SDS011;9724;51.194;6.856;2023-10-19T08:54:05;11.53;;;6.17;;
19183;SDS011;9724;51.194;6.856;2023-10-19T08:56:32;10.50;;;5.97;;
19183;SDS011;9724;51.194;6.856;2023-10-19T08:58:59;14.17;;;6.37;;
19183;SDS011;9724;51.194;6.856;2023-10-19T09:01:26;12.23;;;6.13;;
19183;SDS011;9724;51.194;6.856;2023-10-19T09:03:56;10.97;;;6.20;;
19183;SDS011;9724;51.194;6.856;2023-10-19T09:06:23;16.27;;;6.47;;
19183;SDS011;9724;51.194;6.856;2023-10-19T09:08:49;11.40;;;6.10;;
19183;SDS011;9724;51.194;6.856;2023-10-19T09:11:15;10.33;;;5.87;;
19183;SDS011;9724;51.194;6.856;2023-10-19T09:13:46;8.53;;;5.73;;
19183;SDS011;9724;51.194;6.856;2023-10-19T09:16:14;11.23;;;6.20;;
19183;SDS011;9724;51.194;6.856;2023-10-19T09:18:41;9.73;;;6.00;;
19183;SDS011;9724;51.194;6.856;2023-10-19T09:21:08;11.23;;;6.13;;
19183;SDS011;9724;51.194;6.856;2023-10-19T09:23:37;13.00;;;6.63;;
19183;SDS011;9724;51.194;6.856;2023-10-19T09:29:46;11.60;;;6.03;;
19183;SDS011;9724;51.194;6.856;2023-10-19T09:32:13;12.43;;;5.80;;
19183;SDS011;9724;51.194;6.856;2023-10-19T09:34:41;12.83;;;4.90;;
19183;SDS011;9724;51.194;6.856;2023-10-19T09:37:09;10.77;;;4.83;;
19183;SDS011;9724;51.194;6.856;2023-10-19T09:39:35;8.03;;;4.30;;
19183;SDS011;9724;51.194;6.856;2023-10-19T09:42:02;10.37;;;4.83;;
19183;SDS011;9724;51.194;6.856;2023-10-19T09:44:33;13.60;;;4.70;;
19183;SDS011;9724;51.194;6.856;2023-10-19T09:47:08;9.77;;;4.37;;
19183;SDS011;9724;51.194;6.856;2023-10-19T09:49:38;13.93;;;4.60;;
19183;SDS011;9724;51.194;6.856;2023-10-19T09:52:05;8.10;;;3.50;;
19183;SDS011;9724;51.194;6.856;2023-10-19T09:54:39;7.50;;;3.47;;
19183;SDS011;9724;51.194;6.856;2023-10-19T09:57:14;19.10;;;8.10;;
19183;SDS011;9724;51.194;6.856;2023-10-19T09:59:45;12.07;;;4.00;;
19183;SDS011;9724;51.194;6.856;2023-10-19T10:02:16;8.47;;;3.80;;
19183;SDS011;9724;51.194;6.856;2023-10-19T10:04:44;8.60;;;3.67;;
19183;SDS011;9724;51.194;6.856;2023-10-19T10:07:11;8.87;;;3.40;;
19183;SDS011;9724;51.194;6.856;2023-10-19T10:09:38;11.43;;;2.90;;
19183;SDS011;9724;51.194;6.856;2023-10-19T10:12:15;13.73;;;2.90;;
19183;SDS011;9724;51.194;6.856;2023-10-19T10:14:52;10.77;;;3.00;;
19183;SDS011;9724;51.194;6.856;2023-10-19T10:17:22;8.57;;;2.40;;
19183;SDS011;9724;51.194;6.856;2023-10-19T10:19:49;11.87;;;2.30;;
19183;SDS011;9724;51.194;6.856;2023-10-19T10:22:17;15.20;;;2.83;;
19183;SDS011;9724;51.194;6.856;2023-10-19T10:24:47;8.17;;;2.33;;
19183;SDS011;9724;51.194;6.856;2023-10-19T10:27:20;11.30;;;2.27;;
19183;SDS011;9724;51.194;6.856;2023-10-19T10:32:46;8.60;;;2.13;;
19183;SDS011;9724;51.194;6.856;2023-10-19T10:38:17;15.30;;;2.87;;
19183;SDS011;9724;51.194;6.856;2023-10-19T10:40:44;9.30;;;2.40;;
19183;SDS011;9724;51.194;6.856;2023-10-19T10:43:11;14.07;;;2.47;;
19183;SDS011;9724;51.194;6.856;2023-10-19T10:45:37;13.73;;;2.60;;
19183;SDS011;9724;51.194;6.856;2023-10-19T10:48:05;10.67;;;1.97;;
19183;SDS011;9724;51.194;6.856;2023-10-19T10:50:37;7.00;;;2.10;;
19183;SDS011;9724;51.194;6.856;2023-10-19T10:53:05;7.90;;;1.90;;
19183;SDS011;9724;51.194;6.856;2023-10-19T10:55:31;7.77;;;1.97;;
19183;SDS011;9724;51.194;6.856;2023-10-19T10:57:58;7.23;;;1.83;;
19183;SDS011;9724;51.194;6.856;2023-10-19T11:00:25;11.10;;;1.90;;
19183;SDS011;9724;51.194;6.856;2023-10-19T11:02:58;7.33;;;2.20;;
19183;SDS011;9724;51.194;6.856;2023-10-19T11:05:27;8.37;;;2.13;;
19183;SDS011;9724;51.194;6.856;2023-10-19T11:10:39;9.37;;;2.00;;
19183;SDS011;9724;51.194;6.856;2023-10-19T11:13:08;7.20;;;1.70;;
19183;SDS011;9724;51.194;6.856;2023-10-19T11:15:36;11.47;;;2.00;;
19183;SDS011;9724;51.194;6.856;2023-10-19T11:18:03;6.10;;;1.60;;
19183;SDS011;9724;51.194;6.856;2023-10-19T11:20:30;6.77;;;1.83;;
19183;SDS011;9724;51.194;6.856;2023-10-19T11:22:57;6.53;;;1.77;;
19183;SDS011;9724;51.194;6.856;2023-10-19T11:25:26;10.57;;;1.70;;
19183;SDS011;9724;51.194;6.856;2023-10-19T11:27:54;3.30;;;1.60;;
19183;SDS011;9724;51.194;6.856;2023-10-19T11:30:22;9.90;;;1.97;;
19183;SDS011;9724;51.194;6.856;2023-10-19T11:32:49;8.97;;;2.00;;
19183;SDS011;9724;51.194;6.856;2023-10-19T11:35:18;10.53;;;2.23;;
19183;SDS011;9724;51.194;6.856;2023-10-19T11:37:46;7.67;;;2.33;;
19183;SDS011;9724;51.194;6.856;2023-10-19T11:40:13;9.57;;;2.07;;
19183;SDS011;9724;51.194;6.856;2023-10-19T11:42:39;5.03;;;1.63;;
19183;SDS011;9724;51.194;6.856;2023-10-19T11:45:06;7.10;;;1.83;;
19183;SDS011;9724;51.194;6.856;2023-10-19T11:47:33;4.17;;;1.80;;
19183;SDS011;9724;51.194;6.856;2023-10-19T11:50:00;5.43;;;1.77;;
19183;SDS011;9724;51.194;6.856;2023-10-19T11:52:26;8.00;;;2.00;;
19183;SDS011;9724;51.194;6.856;2023-10-19T11:54:56;9.73;;;2.47;;
19183;SDS011;9724;51.194;6.856;2023-10-19T11:57:23;8.90;;;2.47;;
19183;SDS011;9724;51.194;6.856;2023-10-19T11:59:50;6.27;;;1.87;;
19183;SDS011;9724;51.194;6.856;2023-10-19T12:02:21;7.93;;;1.70;;
19183;SDS011;9724;51.194;6.856;2023-10-19T12:04:48;9.73;;;1.80;;
19183;SDS011;9724;51.194;6.856;2023-10-19T12:07:15;10.10;;;2.10;;
19183;SDS011;9724;51.194;6.856;2023-10-19T12:09:41;5.90;;;2.00;;
19183;SDS011;9724;51.194;6.856;2023-10-19T12:12:11;8.37;;;2.20;;
19183;SDS011;9724;51.194;6.856;2023-10-19T12:14:38;11.03;;;2.10;;
19183;SDS011;9724;51.194;6.856;2023-10-19T12:17:05;6.43;;;2.03;;
19183;SDS011;9724;51.194;6.856;2023-10-19T12:19:33;7.70;;;2.00;;
19183;SDS011;9724;51.194;6.856;2023-10-19T12:22:00;10.23;;;2.20;;
19183;SDS011;9724;51.194;6.856;2023-10-19T12:24:28;10.40;;;2.10;;
19183;SDS011;9724;51.194;6.856;2023-10-19T12:26:55;8.00;;;2.10;;
19183;SDS011;9724;51.194;6.856;2023-10-19T12:29:22;7.67;;;2.03;;
19183;SDS011;9724;51.194;6.856;2023-10-19T12:31:49;10.30;;;2.30;;
19183;SDS011;9724;51.194;6.856;2023-10-19T12:34:15;10.03;;;2.30;;
19183;SDS011;9724;51.194;6.856;2023-10-19T12:36:42;10.17;;;2.27;;
19183;SDS011;9724;51.194;6.856;2023-10-19T12:39:11;15.93;;;2.20;;
19183;SDS011;9724;51.194;6.856;2023-10-19T12:41:59;9.40;;;2.30;;
19183;SDS011;9724;51.194;6.856;2023-10-19T12:44:27;7.33;;;2.23;;
19183;SDS011;9724;51.194;6.856;2023-10-19T12:46:55;15.57;;;2.47;;
19183;SDS011;9724;51.194;6.856;2023-10-19T12:49:22;8.03;;;2.00;;
19183;SDS011;9724;51.194;6.856;2023-10-19T12:51:51;5.33;;;2.17;;
19183;SDS011;9724;51.194;6.856;2023-10-19T12:54:18;8.43;;;2.00;;
19183;SDS011;9724;51.194;6.856;2023-10-19T12:56:44;8.07;;;2.40;;
19183;SDS011;9724;51.194;6.856;2023-10-19T12:59:14;12.57;;;1.97;;
19183;SDS011;9724;51.194;6.856;2023-10-19T13:01:44;8.63;;;2.37;;
19183;SDS011;9724;51.194;6.856;2023-10-19T13:04:14;8.03;;;2.10;;
19183;SDS011;9724;51.194;6.856;2023-10-19T13:06:43;6.53;;;2.13;;
19183;SDS011;9724;51.194;6.856;2023-10-19T13:09:13;4.73;;;2.30;;
19183;SDS011;9724;51.194;6.856;2023-10-19T13:11:41;16.13;;;2.40;;
19183;SDS011;9724;51.194;6.856;2023-10-19T13:14:09;5.73;;;1.90;;
19183;SDS011;9724;51.194;6.856;2023-10-19T13:16:37;9.67;;;2.70;;
19183;SDS011;9724;51.194;6.856;2023-10-19T13:19:05;6.53;;;2.40;;
19183;SDS011;9724;51.194;6.856;2023-10-19T13:21:38;10.97;;;2.33;;
19183;SDS011;9724;51.194;6.856;2023-10-19T13:24:05;15.70;;;2.73;;
19183;SDS011;9724;51.194;6.856;2023-10-19T13:26:32;7.97;;;2.20;;
19183;SDS011;9724;51.194;6.856;2023-10-19T13:28:59;9.10;;;2.63;;
19183;SDS011;9724;51.194;6.856;2023-10-19T13:31:27;9.53;;;2.30;;
19183;SDS011;9724;51.194;6.856;2023-10-19T13:33:53;11.80;;;2.50;;
19183;SDS011;9724;51.194;6.856;2023-10-19T13:36:20;13.13;;;2.10;;
19183;SDS011;9724;51.194;6.856;2023-10-19T13:38:47;10.33;;;2.20;;
19183;SDS011;9724;51.194;6.856;2023-10-19T13:41:13;5.53;;;2.53;;
19183;SDS011;9724;51.194;6.856;2023-10-19T13:43:42;7.73;;;2.03;;
19183;SDS011;9724;51.194;6.856;2023-10-19T13:46:10;10.03;;;2.40;;
19183;SDS011;9724;51.194;6.856;2023-10-19T13:48:37;7.87;;;2.37;;
19183;SDS011;9724;51.194;6.856;2023-10-19T13:51:05;10.67;;;2.30;;
19183;SDS011;9724;51.194;6.856;2023-10-19T13:53:38;8.70;;;2.10;;
19183;SDS011;9724;51.194;6.856;2023-10-19T13:56:07;12.40;;;2.40;;
19183;SDS011;9724;51.194;6.856;2023-10-19T13:58:35;8.47;;;2.13;;
19183;SDS011;9724;51.194;6.856;2023-10-19T14:01:01;9.33;;;2.30;;
19183;SDS011;9724;51.194;6.856;2023-10-19T14:03:29;6.07;;;2.10;;
19183;SDS011;9724;51.194;6.856;2023-10-19T14:05:56;7.93;;;2.37;;
19183;SDS011;9724;51.194;6.856;2023-10-19T14:08:22;9.70;;;2.23;;
19183;SDS011;9724;51.194;6.856;2023-10-19T14:10:49;8.50;;;2.23;;
19183;SDS011;9724;51.194;6.856;2023-10-19T14:13:16;7.00;;;2.30;;
19183;SDS011;9724;51.194;6.856;2023-10-19T14:15:42;12.70;;;2.53;;
19183;SDS011;9724;51.194;6.856;2023-10-19T14:18:09;4.63;;;1.97;;
19183;SDS011;9724;51.194;6.856;2023-10-19T14:20:36;12.73;;;2.80;;
19183;SDS011;9724;51.194;6.856;2023-10-19T14:23:04;5.90;;;2.00;;
19183;SDS011;9724;51.194;6.856;2023-10-19T14:25:31;8.07;;;2.43;;
19183;SDS011;9724;51.194;6.856;2023-10-19T14:27:58;9.17;;;2.60;;
19183;SDS011;9724;51.194;6.856;2023-10-19T14:30:25;7.93;;;2.70;;
19183;SDS011;9724;51.194;6.856;2023-10-19T14:32:54;12.90;;;3.17;;
19183;SDS011;9724;51.194;6.856;2023-10-19T14:35:21;10.70;;;3.03;;
19183;SDS011;9724;51.194;6.856;2023-10-19T14:37:49;10.10;;;2.90;;
19183;SDS011;9724;51.194;6.856;2023-10-19T14:40:17;12.00;;;2.93;;
19183;SDS011;9724;51.194;6.856;2023-10-19T14:42:45;4.77;;;2.40;;
19183;SDS011;9724;51.194;6.856;2023-10-19T14:45:14;6.47;;;2.70;;
19183;SDS011;9724;51.194;6.856;2023-10-19T14:47:42;11.47;;;2.80;;
19183;SDS011;9724;51.194;6.856;2023-10-19T14:50:12;13.27;;;2.80;;
19183;SDS011;9724;51.194;6.856;2023-10-19T14:52:39;13.37;;;2.90;;
19183;SDS011;9724;51.194;6.856;2023-10-19T14:55:07;7.57;;;2.83;;
19183;SDS011;9724;51.194;6.856;2023-10-19T14:57:35;9.70;;;3.10;;
19183;SDS011;9724;51.194;6.856;2023-10-19T15:00:03;9.00;;;2.60;;
19183;SDS011;9724;51.194;6.856;2023-10-19T15:02:35;8.30;;;2.60;;
19183;SDS011;9724;51.194;6.856;2023-10-19T15:05:02;7.77;;;2.70;;
19183;SDS011;9724;51.194;6.856;2023-10-19T15:07:30;8.83;;;2.40;;
19183;SDS011;9724;51.194;6.856;2023-10-19T15:09:56;8.77;;;2.90;;
19183;SDS011;9724;51.194;6.856;2023-10-19T15:12:23;10.43;;;2.73;;
19183;SDS011;9724;51.194;6.856;2023-10-19T15:14:50;7.13;;;2.60;;